createdAt,value
2023-01-04T00:00:51.549Z,6.29
2023-01-04T00:01:51.467Z,6.29
2023-01-04T00:02:51.684Z,6.28
2023-01-04T00:03:51.727Z,6.33
2023-01-04T00:04:51.420Z,6.30
2023-01-04T00:05:51.407Z,6.26
2023-01-04T00:06:51.412Z,6.29
2023-01-04T00:07:51.388Z,6.33
2023-01-04T00:08:51.398Z,6.32
2023-01-04T00:09:51.366Z,6.26
2023-01-04T00:10:51.361Z,6.32
2023-01-04T00:11:51.359Z,6.32
2023-01-04T00:12:51.353Z,6.30
2023-01-04T00:13:51.323Z,6.35
2023-01-04T00:14:51.311Z,6.43
2023-01-04T00:15:51.402Z,6.38
2023-01-04T00:16:51.368Z,6.43
2023-01-04T00:17:51.280Z,6.50
2023-01-04T00:18:51.269Z,6.40
2023-01-04T00:19:51.272Z,6.43
2023-01-04T00:20:51.249Z,6.36
2023-01-04T00:21:51.247Z,6.32
2023-01-04T00:22:51.227Z,6.29
2023-01-04T00:23:51.225Z,6.21
2023-01-04T00:24:51.207Z,6.32
2023-01-04T00:25:51.197Z,6.32
2023-01-04T00:26:51.203Z,6.35
2023-01-04T00:27:51.175Z,6.33
2023-01-04T00:28:54.425Z,6.32
2023-01-04T00:29:51.151Z,6.29
2023-01-04T00:30:51.187Z,6.26
2023-01-04T00:31:51.185Z,6.26
2023-01-04T00:32:51.127Z,6.28
2023-01-04T00:33:51.111Z,6.13
2023-01-04T00:34:51.097Z,6.18
2023-01-04T00:35:51.105Z,6.19
2023-01-04T00:36:51.102Z,6.11
2023-01-04T00:37:52.273Z,6.13
2023-01-04T00:38:51.069Z,6.14
2023-01-04T00:39:51.057Z,6.25
2023-01-04T00:40:51.029Z,6.19
2023-01-04T00:42:00.096Z,6.19
2023-01-04T00:42:52.012Z,6.10
2023-01-04T00:43:51.014Z,6.14
2023-01-04T00:44:50.990Z,6.13
2023-01-04T00:45:51.070Z,6.13
2023-01-04T00:46:51.061Z,6.16
2023-01-04T00:47:50.957Z,6.03
2023-01-04T00:48:53.996Z,6.03
2023-01-04T00:49:51.935Z,5.95
2023-01-04T00:50:50.927Z,5.93
2023-01-04T00:51:50.928Z,6.06
2023-01-04T00:52:50.916Z,6.09
2023-01-04T00:53:50.896Z,5.92
2023-01-04T00:54:50.887Z,5.96
2023-01-04T00:55:50.904Z,6.01
2023-01-04T00:56:50.886Z,5.86
2023-01-04T00:57:50.882Z,5.92
2023-01-04T00:58:50.843Z,5.93
2023-01-04T00:59:50.833Z,5.85
2023-01-04T01:00:50.825Z,5.88
2023-01-04T01:01:51.095Z,5.93
2023-01-04T01:02:51.063Z,5.95
2023-01-04T01:03:50.889Z,5.96
2023-01-04T01:04:50.775Z,5.96
2023-01-04T01:05:50.776Z,5.93
2023-01-04T01:06:50.759Z,5.93
2023-01-04T01:07:50.778Z,5.96
2023-01-04T01:08:50.732Z,6.03
2023-01-04T01:09:50.753Z,6.00
2023-01-04T01:10:50.720Z,6.03
2023-01-04T01:11:50.701Z,6.00
2023-01-04T01:12:50.719Z,6.01
2023-01-04T01:13:50.685Z,6.03
2023-01-04T01:14:52.797Z,6.09
2023-01-04T01:15:50.783Z,6.10
2023-01-04T01:16:56.407Z,6.10
2023-01-04T01:17:51.653Z,6.16
2023-01-04T01:18:50.628Z,6.13
2023-01-04T01:19:50.623Z,6.14
2023-01-04T01:20:50.620Z,6.21
2023-01-04T01:21:50.639Z,6.28
2023-01-04T01:22:50.612Z,6.28
2023-01-04T01:23:50.591Z,6.19
2023-01-04T01:24:50.559Z,6.22
2023-01-04T01:25:50.559Z,6.32
2023-01-04T01:26:50.535Z,6.21
2023-01-04T01:27:50.558Z,6.18
2023-01-04T01:28:50.521Z,6.16
2023-01-04T01:29:50.518Z,6.22
2023-01-04T01:30:50.553Z,6.25
2023-01-04T01:31:50.605Z,6.22
2023-01-04T01:32:50.492Z,6.32
2023-01-04T01:33:50.479Z,6.22
2023-01-04T01:34:50.459Z,6.25
2023-01-04T01:35:50.446Z,6.19
2023-01-04T01:36:50.434Z,6.14
2023-01-04T01:37:50.448Z,6.16
2023-01-04T01:38:50.414Z,6.11
2023-01-04T01:39:50.480Z,6.25
2023-01-04T01:40:50.393Z,6.11
2023-01-04T01:41:50.387Z,6.16
2023-01-04T01:42:50.380Z,6.14
2023-01-04T01:43:50.361Z,6.09
2023-01-04T01:44:50.348Z,6.16
2023-01-04T01:45:50.348Z,6.16
2023-01-04T01:46:50.431Z,6.13
2023-01-04T01:47:50.330Z,6.18
2023-01-04T01:48:50.307Z,6.13
2023-01-04T01:49:50.348Z,6.14
2023-01-04T01:50:50.375Z,6.10
2023-01-04T01:51:50.284Z,6.18
2023-01-04T01:52:50.301Z,6.11
2023-01-04T01:53:50.271Z,6.14
2023-01-04T01:54:50.244Z,6.09
2023-01-04T01:55:50.261Z,5.98
2023-01-04T01:56:50.217Z,5.98
2023-01-04T01:57:50.223Z,6.01
2023-01-04T01:58:50.199Z,5.96
2023-01-04T01:59:50.186Z,6.06
2023-01-04T02:00:50.176Z,6.13
2023-01-04T02:01:50.650Z,6.03
2023-01-04T02:02:50.457Z,6.11
2023-01-04T02:03:50.226Z,6.11
2023-01-04T02:04:50.133Z,6.14
2023-01-04T02:05:50.125Z,6.11
2023-01-04T02:06:50.113Z,6.16
2023-01-04T02:07:50.116Z,6.16
2023-01-04T02:08:50.086Z,6.18
2023-01-04T02:09:50.088Z,6.19
2023-01-04T02:10:50.069Z,6.16
2023-01-04T02:11:50.103Z,6.13
2023-01-04T02:12:50.070Z,6.11
2023-01-04T02:13:50.038Z,6.04
2023-01-04T02:14:50.026Z,5.92
2023-01-04T02:15:50.113Z,5.92
2023-01-04T02:16:50.003Z,5.83
2023-01-04T02:17:50.013Z,5.88
2023-01-04T02:18:49.991Z,5.81
2023-01-04T02:19:49.976Z,5.83
2023-01-04T02:20:49.971Z,5.86
2023-01-04T02:21:49.953Z,5.77
2023-01-04T02:22:49.954Z,5.71
2023-01-04T02:23:49.935Z,5.85
2023-01-04T02:24:49.943Z,5.71
2023-01-04T02:25:49.925Z,5.64
2023-01-04T02:26:49.895Z,5.71
2023-01-04T02:27:50.064Z,5.68
2023-01-04T02:28:49.876Z,5.67
2023-01-04T02:29:49.866Z,5.60
2023-01-04T02:30:49.891Z,5.67
2023-01-04T02:31:49.959Z,5.55
2023-01-04T02:32:49.844Z,5.50
2023-01-04T02:33:49.823Z,5.49
2023-01-04T02:34:54.802Z,5.50
2023-01-04T02:35:50.806Z,5.49
2023-01-04T02:36:49.797Z,5.49
2023-01-04T02:37:49.797Z,5.48
2023-01-04T02:38:49.771Z,5.50
2023-01-04T02:39:49.767Z,5.49
2023-01-04T02:40:49.747Z,5.57
2023-01-04T02:41:49.761Z,5.52
2023-01-04T02:42:49.738Z,5.50
2023-01-04T02:43:49.731Z,5.55
2023-01-04T02:44:49.713Z,5.46
2023-01-04T02:45:49.692Z,5.50
2023-01-04T02:46:49.726Z,5.35
2023-01-04T02:47:49.714Z,5.31
2023-01-04T02:48:49.674Z,5.31
2023-01-04T02:49:49.661Z,5.31
2023-01-04T02:50:49.683Z,5.28
2023-01-04T02:51:49.631Z,5.32
2023-01-04T02:52:49.636Z,5.43
2023-01-04T02:53:49.621Z,5.45
2023-01-04T02:54:49.600Z,5.46
2023-01-04T02:55:49.587Z,5.48
2023-01-04T02:56:49.578Z,5.46
2023-01-04T02:57:49.578Z,5.45
2023-01-04T02:58:49.553Z,5.43
2023-01-04T02:59:49.563Z,5.46
2023-01-04T03:00:49.537Z,5.48
2023-01-04T03:01:49.687Z,5.53
2023-01-04T03:02:49.662Z,5.57
2023-01-04T03:03:49.602Z,5.66
2023-01-04T03:04:49.490Z,5.66
2023-01-04T03:05:49.481Z,5.60
2023-01-04T03:06:49.471Z,5.66
2023-01-04T03:07:49.471Z,5.53
2023-01-04T03:08:49.447Z,5.56
2023-01-04T03:09:49.436Z,5.55
2023-01-04T03:10:49.429Z,5.52
2023-01-04T03:11:49.416Z,5.48
2023-01-04T03:12:49.423Z,5.55
2023-01-04T03:13:49.410Z,5.53
2023-01-04T03:14:49.383Z,5.55
2023-01-04T03:15:49.425Z,5.59
2023-01-04T03:16:49.360Z,5.59
2023-01-04T03:17:49.369Z,5.59
2023-01-04T03:18:49.340Z,5.53
2023-01-04T03:19:49.331Z,5.50
2023-01-04T03:20:49.322Z,5.50
2023-01-04T03:21:49.311Z,5.46
2023-01-04T03:22:49.320Z,5.50
2023-01-04T03:23:49.293Z,5.48
2023-01-04T03:24:49.289Z,5.53
2023-01-04T03:25:49.275Z,5.48
2023-01-04T03:26:49.265Z,5.34
2023-01-04T03:27:49.257Z,5.34
2023-01-04T03:28:49.239Z,5.43
2023-01-04T03:29:49.221Z,5.41
2023-01-04T03:30:49.214Z,5.49
2023-01-04T03:31:49.330Z,5.50
2023-01-04T03:32:49.208Z,5.50
2023-01-04T03:33:49.188Z,5.53
2023-01-04T03:34:49.180Z,5.48
2023-01-04T03:35:49.166Z,5.55
2023-01-04T03:36:49.152Z,5.50
2023-01-04T03:37:49.157Z,5.46
2023-01-04T03:38:49.125Z,5.46
2023-01-04T03:39:49.115Z,5.34
2023-01-04T03:40:49.103Z,5.30
2023-01-04T03:41:49.094Z,5.28
2023-01-04T03:42:49.097Z,5.37
2023-01-04T03:43:49.073Z,5.45
2023-01-04T03:44:49.067Z,5.38
2023-01-04T03:45:49.049Z,5.30
2023-01-04T03:46:49.115Z,5.34
2023-01-04T03:47:49.072Z,5.30
2023-01-04T03:48:49.041Z,5.31
2023-01-04T03:49:49.008Z,5.30
2023-01-04T03:50:49.001Z,5.38
2023-01-04T03:51:48.984Z,5.43
2023-01-04T03:52:48.972Z,5.43
2023-01-04T03:53:48.976Z,5.41
2023-01-04T03:54:48.950Z,5.35
2023-01-04T03:55:48.941Z,5.32
2023-01-04T03:56:48.928Z,5.35
2023-01-04T03:57:48.920Z,5.25
2023-01-04T03:58:48.928Z,5.32
2023-01-04T03:59:48.906Z,5.28
2023-01-04T04:00:48.904Z,5.34
2023-01-04T04:01:49.037Z,5.38
2023-01-04T04:02:48.866Z,5.43
2023-01-04T04:03:48.943Z,5.48
2023-01-04T04:04:48.851Z,5.49
2023-01-04T04:05:48.841Z,5.45
2023-01-04T04:06:48.830Z,5.49
2023-01-04T04:07:48.813Z,5.38
2023-01-04T04:08:48.810Z,5.40
2023-01-04T04:09:48.803Z,5.46
2023-01-04T04:10:48.788Z,5.43
2023-01-04T04:11:48.799Z,5.43
2023-01-04T04:12:48.845Z,5.45
2023-01-04T04:13:48.771Z,5.40
2023-01-04T04:14:48.738Z,5.30
2023-01-04T04:15:48.734Z,5.32
2023-01-04T04:16:48.776Z,5.37
2023-01-04T04:17:48.703Z,5.37
2023-01-04T04:18:48.702Z,5.30
2023-01-04T04:19:48.701Z,5.30
2023-01-04T04:20:48.674Z,5.17
2023-01-04T04:21:48.660Z,5.28
2023-01-04T04:22:48.649Z,5.17
2023-01-04T04:23:48.646Z,5.10
2023-01-04T04:24:48.627Z,5.19
2023-01-04T04:25:48.662Z,5.09
2023-01-04T04:26:48.609Z,5.20
2023-01-04T04:27:48.601Z,5.16
2023-01-04T04:28:48.600Z,5.09
2023-01-04T04:29:48.576Z,5.10
2023-01-04T04:30:48.561Z,5.13
2023-01-04T04:31:48.698Z,5.17
2023-01-04T04:32:48.542Z,5.23
2023-01-04T04:33:48.548Z,5.17
2023-01-04T04:34:48.520Z,5.10
2023-01-04T04:35:48.527Z,5.17
2023-01-04T04:36:48.502Z,5.19
2023-01-04T04:37:48.489Z,5.09
2023-01-04T04:38:48.483Z,5.09
2023-01-04T04:39:48.473Z,5.07
2023-01-04T04:40:48.454Z,5.07
2023-01-04T04:41:48.449Z,5.07
2023-01-04T04:42:48.433Z,5.09
2023-01-04T04:43:48.430Z,5.12
2023-01-04T04:44:48.411Z,5.07
2023-01-04T04:45:48.472Z,5.04
2023-01-04T04:46:48.397Z,5.04
2023-01-04T04:47:48.383Z,5.07
2023-01-04T04:48:48.380Z,4.99
2023-01-04T04:49:48.358Z,5.13
2023-01-04T04:50:48.367Z,5.12
2023-01-04T04:51:48.375Z,4.98
2023-01-04T04:52:54.032Z,5.05
2023-01-04T04:53:49.334Z,5.09
2023-01-04T04:54:48.326Z,5.14
2023-01-04T04:55:48.291Z,4.96
2023-01-04T04:56:48.306Z,5.04
2023-01-04T04:57:48.273Z,5.02
2023-01-04T04:58:48.285Z,5.02
2023-01-04T04:59:48.247Z,5.04
2023-01-04T05:00:48.302Z,5.14
2023-01-04T05:01:56.106Z,5.12
2023-01-04T05:02:48.434Z,5.22
2023-01-04T05:03:48.219Z,5.23
2023-01-04T05:04:48.201Z,5.27
2023-01-04T05:05:48.185Z,5.40
2023-01-04T05:06:48.184Z,5.30
2023-01-04T05:07:48.183Z,5.45
2023-01-04T05:08:48.167Z,5.38
2023-01-04T05:09:48.144Z,5.45
2023-01-04T05:10:48.140Z,5.49
2023-01-04T05:11:48.129Z,5.45
2023-01-04T05:12:51.724Z,5.52
2023-01-04T05:13:49.110Z,5.52
2023-01-04T05:14:48.088Z,5.70
2023-01-04T05:15:48.074Z,5.67
2023-01-04T05:16:48.179Z,5.73
2023-01-04T05:17:48.987Z,5.77
2023-01-04T05:18:55.110Z,5.74
2023-01-04T05:19:48.031Z,5.71
2023-01-04T05:20:48.026Z,5.85
2023-01-04T05:21:48.016Z,5.82
2023-01-04T05:22:48.002Z,5.95
2023-01-04T05:23:48.019Z,5.95
2023-01-04T05:24:47.980Z,5.96
2023-01-04T05:25:47.967Z,6.03
2023-01-04T05:26:47.977Z,5.93
2023-01-04T05:27:47.948Z,5.86
2023-01-04T05:28:53.387Z,5.93
2023-01-04T05:29:48.923Z,5.88
2023-01-04T05:30:47.912Z,5.88
2023-01-04T05:31:55.537Z,5.96
2023-01-04T05:32:47.901Z,6.01
2023-01-04T05:33:47.896Z,6.00
2023-01-04T05:34:47.871Z,6.00
2023-01-04T05:35:47.861Z,6.10
2023-01-04T05:36:47.850Z,5.93
2023-01-04T05:37:47.836Z,5.91
2023-01-04T05:38:47.851Z,6.00
2023-01-04T05:39:47.840Z,6.04
2023-01-04T05:40:47.810Z,5.98
2023-01-04T05:41:47.802Z,5.96
2023-01-04T05:42:47.793Z,5.98
2023-01-04T05:43:47.787Z,6.09
2023-01-04T05:44:47.777Z,5.98
2023-01-04T05:45:47.798Z,6.04
2023-01-04T05:46:47.744Z,5.92
2023-01-04T05:47:47.736Z,6.10
2023-01-04T05:48:47.764Z,6.03
2023-01-04T05:49:55.462Z,6.09
2023-01-04T05:50:55.487Z,6.06
2023-01-04T05:51:47.692Z,6.07
2023-01-04T05:52:47.678Z,6.11
2023-01-04T05:53:47.683Z,6.09
2023-01-04T05:54:47.655Z,6.11
2023-01-04T05:55:47.663Z,6.16
2023-01-04T05:56:47.633Z,6.19
2023-01-04T05:57:47.634Z,6.25
2023-01-04T05:58:47.626Z,6.16
2023-01-04T05:59:47.601Z,6.28
2023-01-04T06:00:47.594Z,6.28
2023-01-04T06:01:47.699Z,6.21
2023-01-04T06:02:47.756Z,6.33
2023-01-04T06:03:47.695Z,6.38
2023-01-04T06:04:51.590Z,6.30
2023-01-04T06:05:48.534Z,6.30
2023-01-04T06:06:55.519Z,6.43
2023-01-04T06:07:47.512Z,6.32
2023-01-04T06:08:47.546Z,6.32
2023-01-04T06:09:55.508Z,6.33
2023-01-04T06:10:47.519Z,6.36
2023-01-04T06:11:47.488Z,6.41
2023-01-04T06:12:47.461Z,6.40
2023-01-04T06:13:47.460Z,6.38
2023-01-04T06:14:47.440Z,6.38
2023-01-04T06:15:47.434Z,6.38
2023-01-04T06:16:47.580Z,6.40
2023-01-04T06:17:47.406Z,6.40
2023-01-04T06:18:47.408Z,6.48
2023-01-04T06:19:47.389Z,6.40
2023-01-04T06:20:47.374Z,6.38
2023-01-04T06:21:47.363Z,6.56
2023-01-04T06:22:47.355Z,6.48
2023-01-04T06:23:47.352Z,6.53
2023-01-04T06:24:47.335Z,6.51
2023-01-04T06:25:47.321Z,6.54
2023-01-04T06:26:47.314Z,6.56
2023-01-04T06:27:47.319Z,6.56
2023-01-04T06:28:47.299Z,6.51
2023-01-04T06:29:47.285Z,6.69
2023-01-04T06:30:47.295Z,6.54
2023-01-04T06:31:47.269Z,6.61
2023-01-04T06:32:47.249Z,6.61
2023-01-04T06:33:47.249Z,6.59
2023-01-04T06:34:47.223Z,6.63
2023-01-04T06:35:47.212Z,6.68
2023-01-04T06:36:47.205Z,6.71
2023-01-04T06:37:47.188Z,6.72
2023-01-04T06:38:47.195Z,6.68
2023-01-04T06:39:55.087Z,6.72
2023-01-04T06:40:47.164Z,6.76
2023-01-04T06:41:47.150Z,6.71
2023-01-04T06:42:47.178Z,6.79
2023-01-04T06:43:47.292Z,6.80
2023-01-04T06:44:47.160Z,6.80
2023-01-04T06:45:47.176Z,6.84
2023-01-04T06:46:47.136Z,6.89
2023-01-04T06:47:47.088Z,6.89
2023-01-04T06:48:47.187Z,6.91
2023-01-04T06:49:47.080Z,6.91
2023-01-04T06:50:47.057Z,6.87
2023-01-04T06:51:47.044Z,6.97
2023-01-04T06:52:47.035Z,7.07
2023-01-04T06:53:47.022Z,7.02
2023-01-04T06:54:54.103Z,7.07
2023-01-04T06:55:46.999Z,7.16
2023-01-04T06:56:46.996Z,7.09
2023-01-04T06:57:46.984Z,7.05
2023-01-04T06:58:46.985Z,7.04
2023-01-04T06:59:46.988Z,7.13
2023-01-04T07:00:46.948Z,7.13
2023-01-04T07:01:47.023Z,7.09
2023-01-04T07:03:13.829Z,7.16
2023-01-04T07:03:47.912Z,7.20
2023-01-04T07:04:47.059Z,7.17
2023-01-04T07:05:46.896Z,7.16
2023-01-04T07:06:46.882Z,7.31
2023-01-04T07:07:46.900Z,7.23
2023-01-04T07:08:46.860Z,7.37
2023-01-04T07:09:46.870Z,7.32
2023-01-04T07:10:46.838Z,7.41
2023-01-04T07:11:46.834Z,7.32
2023-01-04T07:12:46.814Z,7.41
2023-01-04T07:13:46.805Z,7.42
2023-01-04T07:14:46.822Z,7.49
2023-01-04T07:15:46.908Z,7.44
2023-01-04T07:16:46.930Z,7.45
2023-01-04T07:17:46.758Z,7.42
2023-01-04T07:18:46.760Z,7.47
2023-01-04T07:19:46.764Z,7.56
2023-01-04T07:20:46.728Z,7.55
2023-01-04T07:21:46.720Z,7.59
2023-01-04T07:22:46.704Z,7.52
2023-01-04T07:23:46.739Z,7.59
2023-01-04T07:24:46.704Z,7.56
2023-01-04T07:25:46.673Z,7.69
2023-01-04T07:26:46.665Z,7.62
2023-01-04T07:27:46.649Z,7.60
2023-01-04T07:28:46.646Z,7.53
2023-01-04T07:29:46.642Z,7.55
2023-01-04T07:30:46.687Z,7.55
2023-01-04T07:31:46.622Z,7.41
2023-01-04T07:32:46.597Z,7.44
2023-01-04T07:33:46.587Z,7.55
2023-01-04T07:34:46.609Z,7.44
2023-01-04T07:35:46.566Z,7.45
2023-01-04T07:36:46.555Z,7.44
2023-01-04T07:37:47.942Z,7.52
2023-01-04T07:38:46.535Z,7.49
2023-01-04T07:39:46.532Z,7.55
2023-01-04T07:40:56.476Z,7.41
2023-01-04T07:41:47.510Z,7.44
2023-01-04T07:42:46.490Z,7.45
2023-01-04T07:43:46.477Z,7.55
2023-01-04T07:44:46.481Z,7.50
2023-01-04T07:45:46.488Z,7.50
2023-01-04T07:46:46.532Z,7.41
2023-01-04T07:47:46.482Z,7.45
2023-01-04T07:48:46.423Z,7.47
2023-01-04T07:49:46.453Z,7.47
2023-01-04T07:50:46.404Z,7.44
2023-01-04T07:51:46.403Z,7.41
2023-01-04T07:52:46.417Z,7.49
2023-01-04T07:53:46.374Z,7.44
2023-01-04T07:54:46.385Z,7.41
2023-01-04T07:55:46.354Z,7.47
2023-01-04T07:56:46.335Z,7.41
2023-01-04T07:57:46.337Z,7.42
2023-01-04T07:58:46.314Z,7.41
2023-01-04T07:59:46.592Z,7.47
2023-01-04T08:00:46.291Z,7.38
2023-01-04T08:01:46.428Z,7.44
2023-01-04T08:02:46.445Z,7.49
2023-01-04T08:03:46.323Z,7.42
2023-01-04T08:04:46.370Z,7.47
2023-01-04T08:05:46.237Z,7.47
2023-01-04T08:06:46.229Z,7.52
2023-01-04T08:07:46.210Z,7.45
2023-01-04T08:08:46.203Z,7.44
2023-01-04T08:09:46.202Z,7.34
2023-01-04T08:10:46.183Z,7.42
2023-01-04T08:11:46.172Z,7.41
2023-01-04T08:12:46.161Z,7.35
2023-01-04T08:13:46.146Z,7.47
2023-01-04T08:14:46.154Z,7.47
2023-01-04T08:15:46.174Z,7.45
2023-01-04T08:16:46.120Z,7.41
2023-01-04T08:17:46.103Z,7.45
2023-01-04T08:18:46.108Z,7.47
2023-01-04T08:19:46.112Z,7.47
2023-01-04T08:20:46.072Z,7.50
2023-01-04T08:21:46.072Z,7.50
2023-01-04T08:22:46.060Z,7.42
2023-01-04T08:23:46.041Z,7.55
2023-01-04T08:24:46.049Z,7.45
2023-01-04T08:25:46.014Z,7.41
2023-01-04T08:26:46.018Z,7.44
2023-01-04T08:27:45.996Z,7.52
2023-01-04T08:28:45.989Z,7.52
2023-01-04T08:29:46.027Z,7.52
2023-01-04T08:30:45.995Z,7.45
2023-01-04T08:31:46.047Z,7.45
2023-01-04T08:32:45.942Z,7.45
2023-01-04T08:33:45.927Z,7.55
2023-01-04T08:34:45.931Z,7.56
2023-01-04T08:35:45.926Z,7.53
2023-01-04T08:36:45.901Z,7.55
2023-01-04T08:37:45.883Z,7.56
2023-01-04T08:39:02.022Z,7.58
2023-01-04T08:39:49.177Z,7.53
2023-01-04T08:40:59.820Z,7.55
2023-01-04T08:41:57.844Z,7.59
2023-01-04T08:42:46.829Z,7.59
2023-01-04T08:43:45.838Z,7.63
2023-01-04T08:44:45.826Z,7.52
2023-01-04T08:45:45.799Z,7.59
2023-01-04T08:46:45.925Z,7.56
2023-01-04T08:47:45.780Z,7.69
2023-01-04T08:48:45.763Z,7.72
2023-01-04T08:49:45.781Z,7.72
2023-01-04T08:50:45.742Z,7.74
2023-01-04T08:51:45.761Z,7.67
2023-01-04T08:52:45.722Z,7.69
2023-01-04T08:53:45.712Z,7.71
2023-01-04T08:54:45.716Z,7.78
2023-01-04T08:55:45.689Z,7.78
2023-01-04T08:56:45.721Z,7.74
2023-01-04T08:57:45.691Z,7.71
2023-01-04T08:58:45.660Z,7.69
2023-01-04T08:59:45.663Z,7.69
2023-01-04T09:00:45.636Z,7.71
2023-01-04T09:01:45.721Z,7.71
2023-01-04T09:02:45.823Z,7.71
2023-01-04T09:03:45.616Z,7.78
2023-01-04T09:04:45.704Z,7.67
2023-01-04T09:05:45.581Z,7.74
2023-01-04T09:06:45.570Z,7.84
2023-01-04T09:07:45.610Z,7.82
2023-01-04T09:08:45.549Z,7.75
2023-01-04T09:09:45.549Z,7.75
2023-01-04T09:10:45.529Z,7.79
2023-01-04T09:11:45.516Z,7.85
2023-01-04T09:12:45.515Z,7.82
2023-01-04T09:13:45.500Z,7.89
2023-01-04T09:14:45.508Z,7.87
2023-01-04T09:15:45.528Z,7.78
2023-01-04T09:16:45.517Z,7.75
2023-01-04T09:18:05.150Z,7.74
2023-01-04T09:18:46.436Z,7.85
2023-01-04T09:19:45.441Z,7.84
2023-01-04T09:20:45.418Z,7.87
2023-01-04T09:21:45.505Z,7.89
2023-01-04T09:22:45.567Z,7.89
2023-01-04T09:23:45.411Z,7.89
2023-01-04T09:24:45.447Z,7.85
2023-01-04T09:25:45.376Z,7.85
2023-01-04T09:26:45.360Z,7.87
2023-01-04T09:27:45.370Z,7.87
2023-01-04T09:28:45.347Z,7.96
2023-01-04T09:29:45.346Z,7.96
2023-01-04T09:30:45.308Z,8.00
2023-01-04T09:31:45.393Z,7.79
2023-01-04T09:32:45.295Z,7.89
2023-01-04T09:34:13.576Z,7.93
2023-01-04T09:34:46.283Z,7.90
2023-01-04T09:35:45.261Z,7.92
2023-01-04T09:36:45.252Z,7.92
2023-01-04T09:37:45.244Z,7.92
2023-01-04T09:38:45.228Z,7.94
2023-01-04T09:39:45.243Z,7.89
2023-01-04T09:40:45.202Z,7.93
2023-01-04T09:41:45.196Z,7.92
2023-01-04T09:42:45.179Z,7.90
2023-01-04T09:43:45.170Z,7.92
2023-01-04T09:45:46.185Z,7.93
2023-01-04T09:46:45.345Z,8.02
2023-01-04T09:47:45.133Z,7.96
2023-01-04T09:48:45.152Z,7.99
2023-01-04T09:49:45.112Z,7.93
2023-01-04T09:50:45.110Z,7.94
2023-01-04T09:51:45.086Z,7.97
2023-01-04T09:52:45.073Z,7.90
2023-01-04T09:53:45.066Z,7.97
2023-01-04T09:54:45.054Z,7.96
2023-01-04T09:55:45.087Z,7.97
2023-01-04T09:56:45.030Z,8.03
2023-01-04T09:57:45.024Z,7.97
2023-01-04T09:58:45.035Z,8.00
2023-01-04T09:59:44.997Z,7.99
2023-01-04T10:00:45.058Z,7.99
2023-01-04T10:01:45.181Z,8.07
2023-01-04T10:02:45.186Z,8.00
2023-01-04T10:03:44.993Z,8.00
2023-01-04T10:04:44.945Z,7.99
2023-01-04T10:05:44.975Z,8.03
2023-01-04T10:06:44.930Z,8.08
2023-01-04T10:07:44.919Z,7.97
2023-01-04T10:08:44.919Z,8.03
2023-01-04T10:09:44.896Z,8.07
2023-01-04T10:10:44.891Z,8.02
2023-01-04T10:11:44.887Z,8.10
2023-01-04T10:12:44.859Z,8.08
2023-01-04T10:13:44.849Z,8.04
2023-01-04T10:14:44.841Z,8.04
2023-01-04T10:15:44.852Z,8.03
2023-01-04T10:17:11.785Z,8.08
2023-01-04T10:19:23.595Z,8.07
2023-01-04T10:21:45.814Z,8.07
2023-01-04T10:22:44.754Z,8.00
2023-01-04T10:23:44.745Z,8.02
2023-01-04T10:24:44.753Z,8.00
2023-01-04T10:25:44.733Z,7.99
2023-01-04T10:26:44.706Z,8.02
2023-01-04T10:27:44.720Z,8.04
2023-01-04T10:28:44.702Z,8.03
2023-01-04T10:29:44.687Z,8.03
2023-01-04T10:30:44.680Z,8.04
2023-01-04T10:31:44.708Z,8.15
2023-01-04T10:32:44.645Z,8.04
2023-01-04T10:33:44.634Z,8.08
2023-01-04T10:34:44.618Z,8.08
2023-01-04T10:35:44.633Z,8.10
2023-01-04T10:36:44.600Z,8.14
2023-01-04T10:37:44.588Z,8.14
2023-01-04T10:38:44.581Z,8.10
2023-01-04T10:39:44.572Z,8.21
2023-01-04T10:40:44.569Z,8.17
2023-01-04T10:41:44.544Z,8.15
2023-01-04T10:42:44.532Z,8.17
2023-01-04T10:44:12.154Z,8.17
2023-01-04T10:44:45.509Z,8.18
2023-01-04T10:45:44.515Z,8.11
2023-01-04T10:46:44.552Z,8.14
2023-01-04T10:47:44.487Z,8.18
2023-01-04T10:48:44.469Z,8.18
2023-01-04T10:49:44.461Z,8.17
2023-01-04T10:50:44.467Z,8.12
2023-01-04T10:51:44.445Z,8.15
2023-01-04T10:52:44.432Z,8.14
2023-01-04T10:53:44.420Z,8.15
2023-01-04T10:54:44.417Z,8.20
2023-01-04T10:56:24.211Z,8.14
2023-01-04T10:56:45.387Z,8.17
2023-01-04T10:57:44.381Z,8.28
2023-01-04T10:58:44.369Z,8.21
2023-01-04T10:59:44.371Z,8.17
2023-01-04T11:00:44.417Z,8.28
2023-01-04T11:01:44.618Z,8.28
2023-01-04T11:02:44.524Z,8.30
2023-01-04T11:03:44.344Z,8.21
2023-01-04T11:04:44.301Z,8.32
2023-01-04T11:05:44.304Z,8.33
2023-01-04T11:06:44.280Z,8.33
2023-01-04T11:07:44.275Z,8.32
2023-01-04T11:08:44.263Z,8.33
2023-01-04T11:09:44.246Z,8.35
2023-01-04T11:10:44.253Z,8.33
2023-01-04T11:11:44.224Z,8.39
2023-01-04T11:12:44.212Z,8.36
2023-01-04T11:13:44.199Z,8.36
2023-01-04T11:14:44.195Z,8.44
2023-01-04T11:15:44.210Z,8.35
2023-01-04T11:16:44.265Z,8.36
2023-01-04T11:17:44.166Z,8.35
2023-01-04T11:18:44.145Z,8.37
2023-01-04T11:19:44.137Z,8.32
2023-01-04T11:20:44.137Z,8.47
2023-01-04T11:21:44.122Z,8.48
2023-01-04T11:22:44.182Z,8.47
2023-01-04T11:23:44.091Z,8.53
2023-01-04T11:25:00.453Z,8.54
2023-01-04T11:25:46.905Z,8.51
2023-01-04T11:26:45.078Z,8.53
2023-01-04T11:27:44.070Z,8.45
2023-01-04T11:28:44.037Z,8.47
2023-01-04T11:29:44.027Z,8.50
2023-01-04T11:30:44.028Z,8.57
2023-01-04T11:31:44.092Z,8.45
2023-01-04T11:32:43.992Z,8.62
2023-01-04T11:33:43.981Z,8.50
2023-01-04T11:34:44.004Z,8.60
2023-01-04T11:35:43.971Z,8.58
2023-01-04T11:36:43.955Z,8.55
2023-01-04T11:37:43.940Z,8.55
2023-01-04T11:38:43.925Z,8.69
2023-01-04T11:39:43.920Z,8.68
2023-01-04T11:40:43.925Z,8.66
2023-01-04T11:41:43.895Z,8.68
2023-01-04T11:42:43.883Z,8.62
2023-01-04T11:43:43.880Z,8.71
2023-01-04T11:44:43.865Z,8.71
2023-01-04T11:45:43.877Z,8.66
2023-01-04T11:46:43.854Z,8.68
2023-01-04T11:47:43.858Z,8.71
2023-01-04T11:48:43.824Z,8.72
2023-01-04T11:49:43.824Z,8.75
2023-01-04T11:50:43.799Z,8.71
2023-01-04T11:51:43.801Z,8.76
2023-01-04T11:52:43.778Z,8.76
2023-01-04T11:53:43.770Z,8.75
2023-01-04T11:54:43.752Z,8.71
2023-01-04T11:55:43.743Z,8.72
2023-01-04T11:56:43.743Z,8.71
2023-01-04T11:57:43.726Z,8.75
2023-01-04T11:58:43.720Z,8.71
2023-01-04T11:59:43.701Z,8.76
2023-01-04T12:00:43.684Z,8.78
2023-01-04T12:01:43.742Z,8.86
2023-01-04T12:03:12.639Z,8.84
2023-01-04T12:03:44.673Z,8.87
2023-01-04T12:04:43.645Z,8.81
2023-01-04T12:05:43.633Z,8.84
2023-01-04T12:06:43.633Z,8.83
2023-01-04T12:07:43.609Z,8.91
2023-01-04T12:08:43.606Z,8.91
2023-01-04T12:09:43.633Z,8.91
2023-01-04T12:10:43.577Z,8.94
2023-01-04T12:11:43.585Z,8.91
2023-01-04T12:12:43.557Z,8.93
2023-01-04T12:13:43.547Z,8.90
2023-01-04T12:14:43.537Z,8.96
2023-01-04T12:15:43.527Z,8.93
2023-01-04T12:16:43.529Z,8.94
2023-01-04T12:17:43.623Z,8.97
2023-01-04T12:18:43.507Z,8.96
2023-01-04T12:19:43.757Z,8.94
2023-01-04T12:20:43.468Z,9.04
2023-01-04T12:21:43.540Z,9.02
2023-01-04T12:22:43.454Z,8.99
2023-01-04T12:23:43.445Z,8.97
2023-01-04T12:24:43.423Z,8.97
2023-01-04T12:25:43.415Z,9.10
2023-01-04T12:26:43.446Z,9.04
2023-01-04T12:27:43.392Z,9.09
2023-01-04T12:28:43.381Z,9.09
2023-01-04T12:29:43.372Z,9.05
2023-01-04T12:30:43.359Z,9.04
2023-01-04T12:31:43.361Z,9.12
2023-01-04T12:32:43.371Z,9.15
2023-01-04T12:33:43.329Z,9.09
2023-01-04T12:34:43.313Z,9.10
2023-01-04T12:35:43.319Z,9.06
2023-01-04T12:36:43.315Z,9.20
2023-01-04T12:37:43.281Z,9.10
2023-01-04T12:38:43.271Z,9.05
2023-01-04T12:39:43.263Z,9.13
2023-01-04T12:40:43.256Z,9.13
2023-01-04T12:41:43.249Z,9.13
2023-01-04T12:42:43.228Z,9.13
2023-01-04T12:43:47.055Z,9.12
2023-01-04T12:44:43.225Z,9.10
2023-01-04T12:45:43.219Z,9.09
2023-01-04T12:46:43.282Z,9.05
2023-01-04T12:47:43.179Z,9.16
2023-01-04T12:48:43.159Z,9.16
2023-01-04T12:49:43.159Z,9.18
2023-01-04T12:50:47.863Z,9.15
2023-01-04T12:51:58.268Z,9.13
2023-01-04T12:53:44.132Z,9.12
2023-01-04T12:54:50.696Z,9.09
2023-01-04T12:55:44.140Z,9.09
2023-01-04T12:56:43.078Z,9.06
2023-01-04T12:57:43.058Z,9.09
2023-01-04T12:59:44.030Z,8.96
2023-01-04T13:00:43.022Z,8.96
2023-01-04T13:01:43.154Z,8.99
2023-01-04T13:02:43.247Z,8.96
2023-01-04T13:03:43.018Z,8.87
2023-01-04T13:04:43.011Z,8.97
2023-01-04T13:05:56.214Z,8.88
2023-01-04T13:06:43.970Z,8.96
2023-01-04T13:07:42.977Z,8.88
2023-01-04T13:08:42.931Z,8.90
2023-01-04T13:09:46.504Z,8.87
2023-01-04T13:10:43.911Z,8.88
2023-01-04T13:11:42.910Z,8.91
2023-01-04T13:12:42.893Z,8.91
2023-01-04T13:13:42.876Z,8.96
2023-01-04T13:14:42.871Z,8.86
2023-01-04T13:15:42.879Z,8.83
2023-01-04T13:16:42.911Z,8.93
2023-01-04T13:17:42.831Z,8.93
2023-01-04T13:18:42.893Z,8.84
2023-01-04T13:19:42.811Z,8.91
2023-01-04T13:20:42.802Z,8.91
2023-01-04T13:21:42.800Z,8.91
2023-01-04T13:22:42.790Z,8.88
2023-01-04T13:23:42.781Z,8.90
2023-01-04T13:24:42.758Z,8.90